sensor_id;sensor_type;location;lat;lon;timestamp;P1;durP1;ratioP1;P2;durP2;ratioP2
16101;SDS011;56411;52.964;10.540;2023-06-24T00:02:12;19.50;;;12.27;;
16101;SDS011;56411;52.964;10.540;2023-06-24T00:04:39;19.02;;;12.02;;
16101;SDS011;56411;52.964;10.540;2023-06-24T00:07:07;18.67;;;11.35;;
16101;SDS011;56411;52.964;10.540;2023-06-24T00:09:34;19.17;;;12.07;;
16101;SDS011;56411;52.964;10.540;2023-06-24T00:12:02;18.48;;;12.27;;
16101;SDS011;56411;52.964;10.540;2023-06-24T00:14:30;18.70;;;12.07;;
16101;SDS011;56411;52.964;10.540;2023-06-24T00:16:59;19.38;;;12.43;;
16101;SDS011;56411;52.964;10.540;2023-06-24T00:19:26;18.13;;;12.40;;
16101;SDS011;56411;52.964;10.540;2023-06-24T00:21:53;20.35;;;12.05;;
16101;SDS011;56411;52.964;10.540;2023-06-24T00:24:22;21.02;;;12.20;;
16101;SDS011;56411;52.964;10.540;2023-06-24T00:26:50;20.55;;;12.20;;
16101;SDS011;56411;52.964;10.540;2023-06-24T00:29:18;20.60;;;12.77;;
16101;SDS011;56411;52.964;10.540;2023-06-24T00:31:45;20.90;;;12.55;;
16101;SDS011;56411;52.964;10.540;2023-06-24T00:34:14;20.25;;;12.32;;
16101;SDS011;56411;52.964;10.540;2023-06-24T00:36:41;19.90;;;13.15;;
16101;SDS011;56411;52.964;10.540;2023-06-24T00:39:12;21.25;;;13.93;;
16101;SDS011;56411;52.964;10.540;2023-06-24T00:41:39;19.60;;;12.98;;
16101;SDS011;56411;52.964;10.540;2023-06-24T00:44:06;22.53;;;13.43;;
16101;SDS011;56411;52.964;10.540;2023-06-24T00:46:33;20.25;;;13.10;;
16101;SDS011;56411;52.964;10.540;2023-06-24T00:49:01;21.38;;;14.45;;
16101;SDS011;56411;52.964;10.540;2023-06-24T00:51:30;23.60;;;15.43;;
16101;SDS011;56411;52.964;10.540;2023-06-24T00:53:59;20.48;;;14.35;;
16101;SDS011;56411;52.964;10.540;2023-06-24T00:56:30;22.30;;;13.52;;
16101;SDS011;56411;52.964;10.540;2023-06-24T00:59:00;22.53;;;15.13;;
16101;SDS011;56411;52.964;10.540;2023-06-24T01:01:28;23.13;;;15.82;;
16101;SDS011;56411;52.964;10.540;2023-06-24T01:03:58;24.05;;;15.13;;
16101;SDS011;56411;52.964;10.540;2023-06-24T01:06:29;22.43;;;15.17;;
16101;SDS011;56411;52.964;10.540;2023-06-24T01:08:57;21.95;;;14.45;;
16101;SDS011;56411;52.964;10.540;2023-06-24T01:11:25;24.00;;;15.70;;
16101;SDS011;56411;52.964;10.540;2023-06-24T01:13:55;22.97;;;15.80;;
16101;SDS011;56411;52.964;10.540;2023-06-24T01:16:24;24.60;;;15.80;;
16101;SDS011;56411;52.964;10.540;2023-06-24T01:19:00;23.58;;;15.75;;
16101;SDS011;56411;52.964;10.540;2023-06-24T01:21:42;24.23;;;15.13;;
16101;SDS011;56411;52.964;10.540;2023-06-24T01:24:26;24.52;;;15.77;;
16101;SDS011;56411;52.964;10.540;2023-06-24T01:27:18;25.85;;;16.30;;
16101;SDS011;56411;52.964;10.540;2023-06-24T01:30:03;25.00;;;16.33;;
16101;SDS011;56411;52.964;10.540;2023-06-24T01:32:44;24.55;;;15.93;;
16101;SDS011;56411;52.964;10.540;2023-06-24T01:35:16;25.07;;;17.07;;
16101;SDS011;56411;52.964;10.540;2023-06-24T01:37:47;26.93;;;17.40;;
16101;SDS011;56411;52.964;10.540;2023-06-24T01:40:20;27.03;;;16.60;;
16101;SDS011;56411;52.964;10.540;2023-06-24T01:42:52;26.40;;;16.97;;
16101;SDS011;56411;52.964;10.540;2023-06-24T01:45:23;24.97;;;17.97;;
16101;SDS011;56411;52.964;10.540;2023-06-24T01:47:57;26.27;;;17.17;;
16101;SDS011;56411;52.964;10.540;2023-06-24T01:50:28;27.40;;;17.20;;
16101;SDS011;56411;52.964;10.540;2023-06-24T01:52:59;27.23;;;17.65;;
16101;SDS011;56411;52.964;10.540;2023-06-24T01:55:31;26.33;;;16.97;;
16101;SDS011;56411;52.964;10.540;2023-06-24T01:58:00;25.13;;;17.80;;
16101;SDS011;56411;52.964;10.540;2023-06-24T02:00:29;28.20;;;17.60;;
16101;SDS011;56411;52.964;10.540;2023-06-24T02:02:58;27.20;;;17.40;;
16101;SDS011;56411;52.964;10.540;2023-06-24T02:05:26;29.10;;;18.50;;
16101;SDS011;56411;52.964;10.540;2023-06-24T02:07:54;27.83;;;17.98;;
16101;SDS011;56411;52.964;10.540;2023-06-24T02:10:23;27.87;;;18.27;;
16101;SDS011;56411;52.964;10.540;2023-06-24T02:12:50;27.45;;;18.35;;
16101;SDS011;56411;52.964;10.540;2023-06-24T02:15:20;28.90;;;18.17;;
16101;SDS011;56411;52.964;10.540;2023-06-24T02:17:48;29.20;;;18.00;;
16101;SDS011;56411;52.964;10.540;2023-06-24T02:20:18;29.98;;;19.75;;
16101;SDS011;56411;52.964;10.540;2023-06-24T02:22:52;28.10;;;18.73;;
16101;SDS011;56411;52.964;10.540;2023-06-24T02:25:20;29.30;;;18.77;;
16101;SDS011;56411;52.964;10.540;2023-06-24T02:27:48;31.58;;;19.23;;
16101;SDS011;56411;52.964;10.540;2023-06-24T02:30:16;30.40;;;19.55;;
16101;SDS011;56411;52.964;10.540;2023-06-24T02:32:43;31.20;;;20.43;;
16101;SDS011;56411;52.964;10.540;2023-06-24T02:35:11;32.40;;;20.80;;
16101;SDS011;56411;52.964;10.540;2023-06-24T02:37:39;31.00;;;20.03;;
16101;SDS011;56411;52.964;10.540;2023-06-24T02:40:07;31.07;;;19.87;;
16101;SDS011;56411;52.964;10.540;2023-06-24T02:42:35;32.33;;;19.98;;
16101;SDS011;56411;52.964;10.540;2023-06-24T02:45:03;30.37;;;20.23;;
16101;SDS011;56411;52.964;10.540;2023-06-24T02:47:32;30.83;;;21.03;;
16101;SDS011;56411;52.964;10.540;2023-06-24T02:50:01;29.88;;;19.13;;
16101;SDS011;56411;52.964;10.540;2023-06-24T02:52:29;34.70;;;22.00;;
16101;SDS011;56411;52.964;10.540;2023-06-24T02:54:58;31.58;;;20.77;;
16101;SDS011;56411;52.964;10.540;2023-06-24T02:57:25;34.78;;;20.70;;
16101;SDS011;56411;52.964;10.540;2023-06-24T02:59:53;34.67;;;22.75;;
16101;SDS011;56411;52.964;10.540;2023-06-24T03:02:20;30.70;;;20.73;;
16101;SDS011;56411;52.964;10.540;2023-06-24T03:04:48;30.70;;;20.85;;
16101;SDS011;56411;52.964;10.540;2023-06-24T03:07:17;33.58;;;20.85;;
16101;SDS011;56411;52.964;10.540;2023-06-24T03:09:46;34.93;;;22.33;;
16101;SDS011;56411;52.964;10.540;2023-06-24T03:12:14;32.97;;;22.00;;
16101;SDS011;56411;52.964;10.540;2023-06-24T03:14:41;34.15;;;21.95;;
16101;SDS011;56411;52.964;10.540;2023-06-24T03:17:08;32.13;;;20.83;;
16101;SDS011;56411;52.964;10.540;2023-06-24T03:19:36;33.17;;;21.97;;
16101;SDS011;56411;52.964;10.540;2023-06-24T03:22:03;31.77;;;20.75;;
16101;SDS011;56411;52.964;10.540;2023-06-24T03:24:31;29.40;;;20.05;;
16101;SDS011;56411;52.964;10.540;2023-06-24T03:26:58;30.95;;;19.98;;
16101;SDS011;56411;52.964;10.540;2023-06-24T03:29:26;35.60;;;21.42;;
16101;SDS011;56411;52.964;10.540;2023-06-24T03:31:53;33.03;;;20.63;;
16101;SDS011;56411;52.964;10.540;2023-06-24T03:34:20;31.23;;;20.23;;
16101;SDS011;56411;52.964;10.540;2023-06-24T03:36:47;31.45;;;20.50;;
16101;SDS011;56411;52.964;10.540;2023-06-24T03:39:14;33.43;;;20.63;;
16101;SDS011;56411;52.964;10.540;2023-06-24T03:41:41;37.05;;;21.80;;
16101;SDS011;56411;52.964;10.540;2023-06-24T03:44:08;36.08;;;21.63;;
16101;SDS011;56411;52.964;10.540;2023-06-24T03:46:37;33.92;;;21.63;;
16101;SDS011;56411;52.964;10.540;2023-06-24T03:49:04;31.77;;;20.83;;
16101;SDS011;56411;52.964;10.540;2023-06-24T03:51:31;34.85;;;22.48;;
16101;SDS011;56411;52.964;10.540;2023-06-24T03:53:58;35.58;;;21.40;;
16101;SDS011;56411;52.964;10.540;2023-06-24T03:56:25;34.80;;;22.08;;
16101;SDS011;56411;52.964;10.540;2023-06-24T03:58:53;31.93;;;20.97;;
16101;SDS011;56411;52.964;10.540;2023-06-24T04:01:20;32.22;;;21.02;;
16101;SDS011;56411;52.964;10.540;2023-06-24T04:03:49;30.08;;;19.60;;
16101;SDS011;56411;52.964;10.540;2023-06-24T04:06:16;32.15;;;21.20;;
16101;SDS011;56411;52.964;10.540;2023-06-24T04:08:43;28.83;;;19.98;;
16101;SDS011;56411;52.964;10.540;2023-06-24T04:11:13;28.30;;;19.98;;
16101;SDS011;56411;52.964;10.540;2023-06-24T04:13:41;29.50;;;19.48;;
16101;SDS011;56411;52.964;10.540;2023-06-24T04:16:08;29.53;;;20.00;;
16101;SDS011;56411;52.964;10.540;2023-06-24T04:18:35;30.48;;;20.13;;
16101;SDS011;56411;52.964;10.540;2023-06-24T04:21:06;27.97;;;18.50;;
16101;SDS011;56411;52.964;10.540;2023-06-24T04:23:33;29.23;;;18.58;;
16101;SDS011;56411;52.964;10.540;2023-06-24T04:26:00;30.23;;;18.98;;
16101;SDS011;56411;52.964;10.540;2023-06-24T04:28:28;26.77;;;18.52;;
16101;SDS011;56411;52.964;10.540;2023-06-24T04:30:55;31.30;;;20.00;;
16101;SDS011;56411;52.964;10.540;2023-06-24T04:33:23;28.33;;;19.10;;
16101;SDS011;56411;52.964;10.540;2023-06-24T04:35:50;29.33;;;19.58;;
16101;SDS011;56411;52.964;10.540;2023-06-24T04:38:19;29.17;;;20.15;;
16101;SDS011;56411;52.964;10.540;2023-06-24T04:40:46;30.05;;;20.25;;
16101;SDS011;56411;52.964;10.540;2023-06-24T04:43:13;30.88;;;19.88;;
16101;SDS011;56411;52.964;10.540;2023-06-24T04:45:40;31.33;;;21.00;;
16101;SDS011;56411;52.964;10.540;2023-06-24T04:48:07;30.95;;;20.65;;
16101;SDS011;56411;52.964;10.540;2023-06-24T04:50:35;31.10;;;20.77;;
16101;SDS011;56411;52.964;10.540;2023-06-24T04:53:02;31.45;;;19.52;;
16101;SDS011;56411;52.964;10.540;2023-06-24T04:55:30;29.90;;;19.60;;
16101;SDS011;56411;52.964;10.540;2023-06-24T04:57:57;28.50;;;20.52;;
16101;SDS011;56411;52.964;10.540;2023-06-24T05:00:24;29.05;;;19.83;;
16101;SDS011;56411;52.964;10.540;2023-06-24T05:02:51;29.30;;;19.95;;
16101;SDS011;56411;52.964;10.540;2023-06-24T05:05:19;30.35;;;20.33;;
16101;SDS011;56411;52.964;10.540;2023-06-24T05:07:46;27.77;;;19.83;;
16101;SDS011;56411;52.964;10.540;2023-06-24T05:10:13;30.15;;;20.17;;
16101;SDS011;56411;52.964;10.540;2023-06-24T05:12:42;28.90;;;19.88;;
16101;SDS011;56411;52.964;10.540;2023-06-24T05:15:09;30.50;;;19.63;;
16101;SDS011;56411;52.964;10.540;2023-06-24T05:17:36;27.67;;;18.40;;
16101;SDS011;56411;52.964;10.540;2023-06-24T05:20:04;29.55;;;19.67;;
16101;SDS011;56411;52.964;10.540;2023-06-24T05:22:32;30.83;;;20.33;;
16101;SDS011;56411;52.964;10.540;2023-06-24T05:24:59;26.85;;;17.92;;
16101;SDS011;56411;52.964;10.540;2023-06-24T05:27:26;27.33;;;18.73;;
16101;SDS011;56411;52.964;10.540;2023-06-24T05:29:55;33.38;;;19.48;;
16101;SDS011;56411;52.964;10.540;2023-06-24T05:32:22;26.08;;;17.63;;
16101;SDS011;56411;52.964;10.540;2023-06-24T05:34:49;28.45;;;19.10;;
16101;SDS011;56411;52.964;10.540;2023-06-24T05:37:16;27.98;;;19.08;;
16101;SDS011;56411;52.964;10.540;2023-06-24T05:39:44;27.38;;;17.70;;
16101;SDS011;56411;52.964;10.540;2023-06-24T05:42:11;27.35;;;18.23;;
16101;SDS011;56411;52.964;10.540;2023-06-24T05:44:38;26.95;;;17.50;;
16101;SDS011;56411;52.964;10.540;2023-06-24T05:47:06;24.88;;;17.48;;
16101;SDS011;56411;52.964;10.540;2023-06-24T05:49:33;27.02;;;18.27;;
16101;SDS011;56411;52.964;10.540;2023-06-24T05:52:04;24.20;;;15.82;;
16101;SDS011;56411;52.964;10.540;2023-06-24T05:54:32;25.58;;;17.70;;
16101;SDS011;56411;52.964;10.540;2023-06-24T05:56:59;26.33;;;17.75;;
16101;SDS011;56411;52.964;10.540;2023-06-24T05:59:26;24.73;;;17.23;;
16101;SDS011;56411;52.964;10.540;2023-06-24T06:01:53;26.67;;;17.65;;
16101;SDS011;56411;52.964;10.540;2023-06-24T06:04:22;25.42;;;16.83;;
16101;SDS011;56411;52.964;10.540;2023-06-24T06:06:49;24.45;;;17.67;;
16101;SDS011;56411;52.964;10.540;2023-06-24T06:09:16;26.08;;;17.52;;
16101;SDS011;56411;52.964;10.540;2023-06-24T06:11:43;24.77;;;17.75;;
16101;SDS011;56411;52.964;10.540;2023-06-24T06:14:10;24.92;;;16.55;;
16101;SDS011;56411;52.964;10.540;2023-06-24T06:16:37;21.65;;;14.80;;
16101;SDS011;56411;52.964;10.540;2023-06-24T06:19:04;22.30;;;14.43;;
16101;SDS011;56411;52.964;10.540;2023-06-24T06:21:33;20.98;;;14.75;;
16101;SDS011;56411;52.964;10.540;2023-06-24T06:24:02;22.48;;;13.57;;
16101;SDS011;56411;52.964;10.540;2023-06-24T06:26:30;22.48;;;14.48;;
16101;SDS011;56411;52.964;10.540;2023-06-24T06:28:57;21.55;;;14.15;;
16101;SDS011;56411;52.964;10.540;2023-06-24T06:31:24;19.42;;;13.50;;
16101;SDS011;56411;52.964;10.540;2023-06-24T06:33:51;19.05;;;12.82;;
16101;SDS011;56411;52.964;10.540;2023-06-24T06:36:18;19.10;;;13.30;;
16101;SDS011;56411;52.964;10.540;2023-06-24T06:38:47;18.63;;;12.60;;
16101;SDS011;56411;52.964;10.540;2023-06-24T06:41:14;20.92;;;13.95;;
16101;SDS011;56411;52.964;10.540;2023-06-24T06:43:43;17.95;;;13.30;;
16101;SDS011;56411;52.964;10.540;2023-06-24T06:46:10;20.08;;;13.07;;
16101;SDS011;56411;52.964;10.540;2023-06-24T06:48:40;17.05;;;12.60;;
16101;SDS011;56411;52.964;10.540;2023-06-24T06:51:07;19.52;;;12.85;;
16101;SDS011;56411;52.964;10.540;2023-06-24T06:53:34;18.80;;;12.23;;
16101;SDS011;56411;52.964;10.540;2023-06-24T06:56:03;16.10;;;10.32;;
16101;SDS011;56411;52.964;10.540;2023-06-24T06:58:30;16.95;;;11.30;;
16101;SDS011;56411;52.964;10.540;2023-06-24T07:00:58;16.95;;;11.13;;
16101;SDS011;56411;52.964;10.540;2023-06-24T07:03:30;19.25;;;12.60;;
16101;SDS011;56411;52.964;10.540;2023-06-24T07:05:57;18.10;;;11.63;;
16101;SDS011;56411;52.964;10.540;2023-06-24T07:08:24;17.08;;;11.05;;
16101;SDS011;56411;52.964;10.540;2023-06-24T07:10:51;18.17;;;11.43;;
16101;SDS011;56411;52.964;10.540;2023-06-24T07:13:19;16.10;;;10.38;;
16101;SDS011;56411;52.964;10.540;2023-06-24T07:15:46;18.10;;;10.57;;
16101;SDS011;56411;52.964;10.540;2023-06-24T07:18:13;18.70;;;11.55;;
16101;SDS011;56411;52.964;10.540;2023-06-24T07:20:40;16.73;;;10.30;;
16101;SDS011;56411;52.964;10.540;2023-06-24T07:23:07;15.10;;;8.85;;
16101;SDS011;56411;52.964;10.540;2023-06-24T07:25:35;13.63;;;8.70;;
16101;SDS011;56411;52.964;10.540;2023-06-24T07:28:02;14.75;;;8.25;;
16101;SDS011;56411;52.964;10.540;2023-06-24T07:30:31;13.55;;;8.07;;
16101;SDS011;56411;52.964;10.540;2023-06-24T07:32:58;13.93;;;8.68;;
16101;SDS011;56411;52.964;10.540;2023-06-24T07:35:30;15.77;;;9.00;;
16101;SDS011;56411;52.964;10.540;2023-06-24T07:37:57;14.88;;;8.75;;
16101;SDS011;56411;52.964;10.540;2023-06-24T07:40:24;13.07;;;7.93;;
16101;SDS011;56411;52.964;10.540;2023-06-24T07:42:52;14.15;;;8.30;;
16101;SDS011;56411;52.964;10.540;2023-06-24T07:45:19;11.57;;;6.45;;
16101;SDS011;56411;52.964;10.540;2023-06-24T07:47:48;13.35;;;7.25;;
16101;SDS011;56411;52.964;10.540;2023-06-24T07:50:15;12.63;;;6.60;;
16101;SDS011;56411;52.964;10.540;2023-06-24T07:52:42;12.68;;;7.03;;
16101;SDS011;56411;52.964;10.540;2023-06-24T07:55:10;11.93;;;6.57;;
16101;SDS011;56411;52.964;10.540;2023-06-24T07:57:38;13.27;;;6.43;;
16101;SDS011;56411;52.964;10.540;2023-06-24T08:00:06;11.02;;;5.85;;
16101;SDS011;56411;52.964;10.540;2023-06-24T08:02:36;8.70;;;4.50;;
16101;SDS011;56411;52.964;10.540;2023-06-24T08:05:05;10.93;;;5.72;;
16101;SDS011;56411;52.964;10.540;2023-06-24T08:07:32;11.52;;;5.90;;
16101;SDS011;56411;52.964;10.540;2023-06-24T08:09:59;9.90;;;5.03;;
16101;SDS011;56411;52.964;10.540;2023-06-24T08:12:26;10.38;;;5.72;;
16101;SDS011;56411;52.964;10.540;2023-06-24T08:14:53;12.02;;;7.07;;
16101;SDS011;56411;52.964;10.540;2023-06-24T08:17:20;13.30;;;6.20;;
16101;SDS011;56411;52.964;10.540;2023-06-24T08:19:48;11.68;;;5.95;;
16101;SDS011;56411;52.964;10.540;2023-06-24T08:22:16;9.93;;;4.90;;
16101;SDS011;56411;52.964;10.540;2023-06-24T08:24:43;10.10;;;5.40;;
16101;SDS011;56411;52.964;10.540;2023-06-24T08:27:11;9.23;;;4.88;;
16101;SDS011;56411;52.964;10.540;2023-06-24T08:29:38;10.93;;;5.30;;
16101;SDS011;56411;52.964;10.540;2023-06-24T08:32:05;10.93;;;5.78;;
16101;SDS011;56411;52.964;10.540;2023-06-24T08:34:32;10.32;;;5.65;;
16101;SDS011;56411;52.964;10.540;2023-06-24T08:37:00;11.25;;;6.22;;
16101;SDS011;56411;52.964;10.540;2023-06-24T08:39:28;11.95;;;6.43;;
16101;SDS011;56411;52.964;10.540;2023-06-24T08:41:55;11.38;;;6.22;;
16101;SDS011;56411;52.964;10.540;2023-06-24T08:44:22;13.00;;;7.05;;
16101;SDS011;56411;52.964;10.540;2023-06-24T08:46:49;11.05;;;5.63;;
16101;SDS011;56411;52.964;10.540;2023-06-24T08:49:18;10.35;;;5.88;;
16101;SDS011;56411;52.964;10.540;2023-06-24T08:51:54;10.85;;;5.90;;
16101;SDS011;56411;52.964;10.540;2023-06-24T08:54:27;11.57;;;5.90;;
16101;SDS011;56411;52.964;10.540;2023-06-24T08:56:56;10.63;;;6.22;;
16101;SDS011;56411;52.964;10.540;2023-06-24T08:59:25;10.32;;;5.82;;
16101;SDS011;56411;52.964;10.540;2023-06-24T09:01:52;10.63;;;6.00;;
16101;SDS011;56411;52.964;10.540;2023-06-24T09:04:20;12.20;;;6.20;;
16101;SDS011;56411;52.964;10.540;2023-06-24T09:06:47;11.05;;;5.93;;
16101;SDS011;56411;52.964;10.540;2023-06-24T09:09:22;10.90;;;5.95;;
16101;SDS011;56411;52.964;10.540;2023-06-24T09:11:55;11.00;;;6.22;;
16101;SDS011;56411;52.964;10.540;2023-06-24T09:14:25;11.80;;;6.68;;
16101;SDS011;56411;52.964;10.540;2023-06-24T09:16:53;10.45;;;5.65;;
16101;SDS011;56411;52.964;10.540;2023-06-24T09:19:31;11.10;;;5.75;;
16101;SDS011;56411;52.964;10.540;2023-06-24T09:22:01;11.82;;;5.70;;
16101;SDS011;56411;52.964;10.540;2023-06-24T09:24:30;8.70;;;4.47;;
16101;SDS011;56411;52.964;10.540;2023-06-24T09:26:59;8.77;;;4.93;;
16101;SDS011;56411;52.964;10.540;2023-06-24T09:29:27;11.63;;;5.40;;
16101;SDS011;56411;52.964;10.540;2023-06-24T09:32:03;8.98;;;5.28;;
16101;SDS011;56411;52.964;10.540;2023-06-24T09:34:31;10.45;;;5.20;;
16101;SDS011;56411;52.964;10.540;2023-06-24T09:36:59;9.18;;;4.90;;
16101;SDS011;56411;52.964;10.540;2023-06-24T09:39:27;8.68;;;4.57;;
16101;SDS011;56411;52.964;10.540;2023-06-24T09:42:03;8.98;;;5.00;;
16101;SDS011;56411;52.964;10.540;2023-06-24T09:44:32;9.50;;;5.30;;
16101;SDS011;56411;52.964;10.540;2023-06-24T09:46:59;10.10;;;4.50;;
16101;SDS011;56411;52.964;10.540;2023-06-24T09:49:26;8.48;;;4.60;;
16101;SDS011;56411;52.964;10.540;2023-06-24T09:51:55;8.80;;;4.82;;
16101;SDS011;56411;52.964;10.540;2023-06-24T09:54:24;10.82;;;5.18;;
16101;SDS011;56411;52.964;10.540;2023-06-24T09:56:53;8.98;;;5.20;;
16101;SDS011;56411;52.964;10.540;2023-06-24T09:59:23;10.43;;;5.60;;
16101;SDS011;56411;52.964;10.540;2023-06-24T10:01:52;9.63;;;5.15;;
16101;SDS011;56411;52.964;10.540;2023-06-24T10:04:20;9.05;;;4.93;;
16101;SDS011;56411;52.964;10.540;2023-06-24T10:06:48;10.80;;;5.30;;
16101;SDS011;56411;52.964;10.540;2023-06-24T10:09:15;10.10;;;5.40;;
16101;SDS011;56411;52.964;10.540;2023-06-24T10:11:44;10.63;;;5.78;;
16101;SDS011;56411;52.964;10.540;2023-06-24T10:14:11;11.35;;;6.32;;
16101;SDS011;56411;52.964;10.540;2023-06-24T10:16:41;10.02;;;6.10;;
16101;SDS011;56411;52.964;10.540;2023-06-24T10:19:08;10.52;;;6.35;;
16101;SDS011;56411;52.964;10.540;2023-06-24T10:21:43;11.30;;;6.50;;
16101;SDS011;56411;52.964;10.540;2023-06-24T10:24:11;10.57;;;6.18;;
16101;SDS011;56411;52.964;10.540;2023-06-24T10:26:39;11.07;;;6.57;;
16101;SDS011;56411;52.964;10.540;2023-06-24T10:29:13;10.77;;;6.28;;
16101;SDS011;56411;52.964;10.540;2023-06-24T10:31:53;11.80;;;6.90;;
16101;SDS011;56411;52.964;10.540;2023-06-24T10:34:27;11.57;;;7.00;;
16101;SDS011;56411;52.964;10.540;2023-06-24T10:36:58;10.85;;;6.60;;
16101;SDS011;56411;52.964;10.540;2023-06-24T10:39:38;11.23;;;6.57;;
16101;SDS011;56411;52.964;10.540;2023-06-24T10:42:28;11.38;;;6.65;;
16101;SDS011;56411;52.964;10.540;2023-06-24T10:45:12;11.95;;;6.97;;
16101;SDS011;56411;52.964;10.540;2023-06-24T10:47:43;11.85;;;6.22;;
16101;SDS011;56411;52.964;10.540;2023-06-24T10:50:12;11.20;;;6.65;;
16101;SDS011;56411;52.964;10.540;2023-06-24T10:52:41;12.65;;;7.07;;
16101;SDS011;56411;52.964;10.540;2023-06-24T10:55:09;11.13;;;6.60;;
16101;SDS011;56411;52.964;10.540;2023-06-24T10:57:36;12.48;;;6.60;;
16101;SDS011;56411;52.964;10.540;2023-06-24T11:00:04;10.48;;;6.10;;
16101;SDS011;56411;52.964;10.540;2023-06-24T11:02:32;11.45;;;6.40;;
16101;SDS011;56411;52.964;10.540;2023-06-24T11:05:01;11.15;;;6.28;;
16101;SDS011;56411;52.964;10.540;2023-06-24T11:07:29;10.10;;;5.72;;
16101;SDS011;56411;52.964;10.540;2023-06-24T11:10:01;11.20;;;6.13;;
16101;SDS011;56411;52.964;10.540;2023-06-24T11:12:30;10.73;;;6.10;;
16101;SDS011;56411;52.964;10.540;2023-06-24T11:14:59;9.55;;;5.82;;
16101;SDS011;56411;52.964;10.540;2023-06-24T11:17:27;10.63;;;5.95;;
16101;SDS011;56411;52.964;10.540;2023-06-24T11:19:57;9.80;;;5.90;;
16101;SDS011;56411;52.964;10.540;2023-06-24T11:22:27;10.23;;;5.50;;
16101;SDS011;56411;52.964;10.540;2023-06-24T11:24:54;8.95;;;5.18;;
16101;SDS011;56411;52.964;10.540;2023-06-24T11:27:25;10.68;;;5.65;;
16101;SDS011;56411;52.964;10.540;2023-06-24T11:29:52;10.77;;;5.85;;
16101;SDS011;56411;52.964;10.540;2023-06-24T11:32:21;10.60;;;5.45;;
16101;SDS011;56411;52.964;10.540;2023-06-24T11:34:48;9.15;;;5.10;;
16101;SDS011;56411;52.964;10.540;2023-06-24T11:37:16;10.88;;;5.20;;
16101;SDS011;56411;52.964;10.540;2023-06-24T11:39:59;8.80;;;4.78;;
16101;SDS011;56411;52.964;10.540;2023-06-24T11:42:32;10.75;;;5.50;;
16101;SDS011;56411;52.964;10.540;2023-06-24T11:45:01;8.88;;;4.90;;
16101;SDS011;56411;52.964;10.540;2023-06-24T11:47:32;10.55;;;5.40;;
16101;SDS011;56411;52.964;10.540;2023-06-24T11:50:00;9.82;;;5.15;;
16101;SDS011;56411;52.964;10.540;2023-06-24T11:52:40;8.38;;;5.00;;
16101;SDS011;56411;52.964;10.540;2023-06-24T11:55:15;10.18;;;5.28;;
16101;SDS011;56411;52.964;10.540;2023-06-24T11:57:46;9.60;;;4.97;;
16101;SDS011;56411;52.964;10.540;2023-06-24T12:00:15;11.02;;;5.35;;
16101;SDS011;56411;52.964;10.540;2023-06-24T12:02:43;10.45;;;4.80;;
16101;SDS011;56411;52.964;10.540;2023-06-24T12:05:10;8.80;;;5.05;;
16101;SDS011;56411;52.964;10.540;2023-06-24T12:07:43;9.88;;;5.13;;
16101;SDS011;56411;52.964;10.540;2023-06-24T12:10:10;10.20;;;4.75;;
16101;SDS011;56411;52.964;10.540;2023-06-24T12:12:38;8.70;;;4.95;;
16101;SDS011;56411;52.964;10.540;2023-06-24T12:15:06;7.35;;;4.50;;
16101;SDS011;56411;52.964;10.540;2023-06-24T12:17:33;9.98;;;4.57;;
16101;SDS011;56411;52.964;10.540;2023-06-24T12:20:00;10.30;;;4.65;;
16101;SDS011;56411;52.964;10.540;2023-06-24T12:22:27;8.43;;;4.65;;
16101;SDS011;56411;52.964;10.540;2023-06-24T12:24:54;7.47;;;4.60;;
16101;SDS011;56411;52.964;10.540;2023-06-24T12:27:21;8.32;;;4.60;;
16101;SDS011;56411;52.964;10.540;2023-06-24T12:29:50;8.07;;;4.60;;
16101;SDS011;56411;52.964;10.540;2023-06-24T12:32:17;8.73;;;4.50;;
16101;SDS011;56411;52.964;10.540;2023-06-24T12:34:44;8.07;;;4.82;;
16101;SDS011;56411;52.964;10.540;2023-06-24T12:37:11;10.07;;;4.70;;
16101;SDS011;56411;52.964;10.540;2023-06-24T12:39:38;8.45;;;4.85;;
16101;SDS011;56411;52.964;10.540;2023-06-24T12:42:06;9.57;;;4.90;;
16101;SDS011;56411;52.964;10.540;2023-06-24T12:44:33;8.13;;;4.60;;
16101;SDS011;56411;52.964;10.540;2023-06-24T12:47:01;9.35;;;5.10;;
16101;SDS011;56411;52.964;10.540;2023-06-24T12:49:28;9.55;;;5.05;;
16101;SDS011;56411;52.964;10.540;2023-06-24T12:51:55;9.55;;;5.07;;
16101;SDS011;56411;52.964;10.540;2023-06-24T12:54:22;9.63;;;5.00;;
16101;SDS011;56411;52.964;10.540;2023-06-24T12:56:49;10.15;;;4.95;;
16101;SDS011;56411;52.964;10.540;2023-06-24T12:59:20;8.25;;;4.55;;
16101;SDS011;56411;52.964;10.540;2023-06-24T13:01:47;8.25;;;4.75;;
16101;SDS011;56411;52.964;10.540;2023-06-24T13:04:15;8.85;;;4.40;;
16101;SDS011;56411;52.964;10.540;2023-06-24T13:06:43;9.55;;;4.78;;
16101;SDS011;56411;52.964;10.540;2023-06-24T13:09:10;8.82;;;4.75;;
16101;SDS011;56411;52.964;10.540;2023-06-24T13:11:37;12.43;;;4.68;;
16101;SDS011;56411;52.964;10.540;2023-06-24T13:14:05;8.95;;;4.88;;
16101;SDS011;56411;52.964;10.540;2023-06-24T13:16:35;9.18;;;4.70;;
16101;SDS011;56411;52.964;10.540;2023-06-24T13:19:02;7.85;;;4.40;;
16101;SDS011;56411;52.964;10.540;2023-06-24T13:21:31;9.20;;;4.78;;
16101;SDS011;56411;52.964;10.540;2023-06-24T13:23:58;9.15;;;4.60;;
16101;SDS011;56411;52.964;10.540;2023-06-24T13:26:25;8.55;;;4.63;;
16101;SDS011;56411;52.964;10.540;2023-06-24T13:28:52;7.78;;;4.50;;
16101;SDS011;56411;52.964;10.540;2023-06-24T13:31:20;8.00;;;4.30;;
16101;SDS011;56411;52.964;10.540;2023-06-24T13:33:47;8.65;;;4.40;;
16101;SDS011;56411;52.964;10.540;2023-06-24T13:36:27;8.43;;;4.57;;
16101;SDS011;56411;52.964;10.540;2023-06-24T13:39:00;7.30;;;4.13;;
16101;SDS011;56411;52.964;10.540;2023-06-24T13:41:28;8.00;;;4.28;;
16101;SDS011;56411;52.964;10.540;2023-06-24T13:43:57;8.05;;;4.30;;
16101;SDS011;56411;52.964;10.540;2023-06-24T13:46:25;7.60;;;4.55;;
16101;SDS011;56411;52.964;10.540;2023-06-24T13:48:53;6.75;;;4.20;;
16101;SDS011;56411;52.964;10.540;2023-06-24T13:51:20;7.60;;;4.00;;
16101;SDS011;56411;52.964;10.540;2023-06-24T13:53:49;7.93;;;4.00;;
16101;SDS011;56411;52.964;10.540;2023-06-24T13:56:17;7.20;;;4.13;;
16101;SDS011;56411;52.964;10.540;2023-06-24T13:58:44;8.10;;;3.92;;
16101;SDS011;56411;52.964;10.540;2023-06-24T14:01:11;8.20;;;4.45;;
16101;SDS011;56411;52.964;10.540;2023-06-24T14:03:39;7.72;;;4.30;;
16101;SDS011;56411;52.964;10.540;2023-06-24T14:06:06;7.68;;;4.13;;
16101;SDS011;56411;52.964;10.540;2023-06-24T14:08:34;7.32;;;4.07;;
16101;SDS011;56411;52.964;10.540;2023-06-24T14:11:02;6.95;;;3.80;;
16101;SDS011;56411;52.964;10.540;2023-06-24T14:13:30;7.18;;;3.97;;
16101;SDS011;56411;52.964;10.540;2023-06-24T14:15:57;5.85;;;3.70;;
16101;SDS011;56411;52.964;10.540;2023-06-24T14:18:24;6.43;;;3.92;;
16101;SDS011;56411;52.964;10.540;2023-06-24T14:20:51;7.88;;;4.15;;
16101;SDS011;56411;52.964;10.540;2023-06-24T14:23:18;7.50;;;4.30;;
16101;SDS011;56411;52.964;10.540;2023-06-24T14:25:46;8.88;;;4.30;;
16101;SDS011;56411;52.964;10.540;2023-06-24T14:28:14;8.60;;;4.18;;